createdAt,value
2023-10-25T00:02:35.965Z,51.69
2023-10-25T00:07:37.715Z,51.96
2023-10-25T00:12:39.415Z,51.54
2023-10-25T00:17:41.725Z,51.83
2023-10-25T00:22:43.425Z,52.68
2023-10-25T00:27:45.848Z,52.16
2023-10-25T00:32:48.606Z,52.37
2023-10-25T00:37:50.301Z,52.78
2023-10-25T00:42:52.006Z,52.48
2023-10-25T00:47:53.707Z,52.00
2023-10-25T00:52:55.452Z,52.00
2023-10-25T00:57:57.180Z,52.38
2023-10-25T01:03:00.458Z,50.44
2023-10-25T01:08:02.222Z,55.30
2023-10-25T01:13:03.992Z,54.05
2023-10-25T01:18:05.738Z,52.50
2023-10-25T01:23:07.868Z,52.14
2023-10-25T01:28:10.022Z,52.60
2023-10-25T01:33:11.895Z,52.89
2023-10-25T01:38:13.645Z,52.44
2023-10-25T01:43:15.463Z,51.98
2023-10-25T01:48:17.186Z,51.64
2023-10-25T01:53:18.928Z,49.54
2023-10-25T01:58:20.653Z,49.66
2023-10-25T02:03:22.504Z,49.79
2023-10-25T02:08:24.257Z,51.13
2023-10-25T02:13:25.902Z,51.77
2023-10-25T02:18:27.625Z,53.71
2023-10-25T02:23:29.286Z,54.49
2023-10-25T02:28:30.978Z,55.74
2023-10-25T02:33:32.671Z,58.21
2023-10-25T02:38:34.328Z,58.41
2023-10-25T02:43:36.083Z,58.24
2023-10-25T02:48:38.345Z,56.05
2023-10-25T02:53:40.051Z,51.57
2023-10-25T02:58:41.729Z,53.78
2023-10-25T03:03:43.442Z,55.93
2023-10-25T03:08:45.199Z,52.18
2023-10-25T03:13:47.571Z,52.72
2023-10-25T03:18:49.400Z,50.50
2023-10-25T03:23:51.372Z,55.80
2023-10-25T03:28:53.108Z,51.98
2023-10-25T03:33:54.815Z,50.18
2023-10-25T03:38:56.560Z,49.10
2023-10-25T03:43:58.253Z,53.38
2023-10-25T03:49:00.006Z,55.65
2023-10-25T03:54:01.781Z,56.51
2023-10-25T03:59:03.418Z,55.63
2023-10-25T04:04:05.505Z,52.35
2023-10-25T04:09:09.383Z,50.64
2023-10-25T04:14:11.043Z,49.73
2023-10-25T04:19:13.457Z,51.48
2023-10-25T04:24:15.122Z,49.99
2023-10-25T04:29:16.806Z,53.31
2023-10-25T04:34:18.486Z,50.92
2023-10-25T04:39:20.149Z,49.88
2023-10-25T04:44:21.856Z,49.48
2023-10-25T04:49:23.586Z,56.18
2023-10-25T04:54:25.210Z,56.16
2023-10-25T04:59:29.705Z,55.29
2023-10-25T05:04:31.812Z,51.50
2023-10-25T05:09:33.989Z,56.09
2023-10-25T05:14:36.565Z,55.53
2023-10-25T05:19:38.445Z,56.43
2023-10-25T05:24:40.368Z,54.55
2023-10-25T05:29:42.456Z,51.69
2023-10-25T05:34:44.751Z,51.51
2023-10-25T05:39:46.755Z,51.29
2023-10-25T05:44:49.514Z,50.91
2023-10-25T05:49:51.920Z,56.63
2023-10-25T05:54:53.906Z,56.70
2023-10-25T05:59:55.914Z,54.24
2023-10-25T06:04:58.956Z,51.43
2023-10-25T06:10:00.940Z,53.47
2023-10-25T06:15:03.460Z,52.57
2023-10-25T06:20:05.871Z,52.80
2023-10-25T06:25:13.183Z,50.75
2023-10-25T06:30:15.669Z,49.98
2023-10-25T06:35:17.462Z,53.36
2023-10-25T06:40:19.597Z,54.58
2023-10-25T06:45:22.498Z,56.40
2023-10-25T06:50:26.422Z,55.27
2023-10-25T06:55:28.549Z,56.26
2023-10-25T07:00:30.531Z,52.93
2023-10-25T07:05:32.692Z,54.61
2023-10-25T07:10:34.737Z,52.20
2023-10-25T07:15:37.049Z,52.58
2023-10-25T07:20:38.694Z,56.09
2023-10-25T07:25:40.542Z,55.05
2023-10-25T07:30:42.309Z,54.62
2023-10-25T07:35:44.210Z,52.13
2023-10-25T07:40:45.866Z,56.11
2023-10-25T07:45:47.726Z,53.85
2023-10-25T07:50:49.420Z,54.67
2023-10-25T08:00:56.839Z,51.34
2023-10-25T08:05:58.674Z,49.67
2023-10-25T08:11:04.790Z,50.76
2023-10-25T08:16:06.586Z,56.07
2023-10-25T08:21:14.025Z,53.47
2023-10-25T08:26:15.788Z,53.08
2023-10-25T08:31:18.801Z,50.53
2023-10-25T08:36:20.552Z,50.72
2023-10-25T08:41:26.266Z,50.63
2023-10-25T08:46:29.289Z,49.98
2023-10-25T08:51:31.004Z,50.79
2023-10-25T08:56:32.646Z,54.12
2023-10-25T09:01:35.204Z,52.26
2023-10-25T09:06:37.009Z,52.47
2023-10-25T09:11:43.946Z,50.87
2023-10-25T09:16:46.454Z,50.73
2023-10-25T09:21:48.086Z,50.79
2023-10-25T09:26:49.750Z,51.21
2023-10-25T09:31:53.288Z,50.37
2023-10-25T09:36:55.007Z,50.87
2023-10-25T09:41:59.555Z,51.87
2023-10-25T09:47:04.556Z,50.79
2023-10-25T09:52:26.347Z,54.96
2023-10-25T09:57:30.686Z,53.32
2023-10-25T10:02:55.687Z,56.28
2023-10-25T10:08:18.041Z,54.41
2023-10-25T10:13:21.706Z,52.58
2023-10-25T10:18:23.436Z,54.35
2023-10-25T10:23:37.611Z,52.10
2023-10-25T10:28:44.420Z,53.16
2023-10-25T10:33:47.476Z,52.75
2023-10-25T10:39:11.651Z,53.64
2023-10-25T10:44:13.396Z,54.55
2023-10-25T10:49:20.001Z,54.29
2023-10-25T10:54:21.698Z,54.24
2023-10-25T10:59:25.735Z,56.28
2023-10-25T11:06:12.892Z,62.89
2023-10-25T11:11:14.607Z,63.07
2023-10-25T11:16:17.505Z,60.57
2023-10-25T11:21:19.114Z,61.99
2023-10-25T11:26:20.712Z,64.88
2023-10-25T11:31:23.285Z,64.46
2023-10-25T11:36:28.959Z,66.53
2023-10-25T11:41:30.594Z,67.84
2023-10-25T11:46:39.800Z,63.85
2023-10-25T11:51:41.552Z,62.42
2023-10-25T11:56:43.403Z,63.60
2023-10-25T12:01:45.813Z,60.80
2023-10-25T12:06:47.538Z,62.10
2023-10-25T12:11:49.232Z,59.73
2023-10-25T12:16:50.882Z,59.62
2023-10-25T12:21:57.390Z,57.97
2023-10-25T12:26:59.480Z,56.18
2023-10-25T12:32:01.785Z,59.48
2023-10-25T12:37:03.504Z,60.24
2023-10-25T12:42:05.673Z,61.65
2023-10-25T12:47:08.174Z,63.15
2023-10-25T12:52:10.134Z,63.92
2023-10-25T12:57:11.842Z,62.79
2023-10-25T13:02:13.541Z,63.24
2023-10-25T13:07:15.552Z,63.55
2023-10-25T13:12:17.248Z,61.26
2023-10-25T13:17:20.729Z,61.87
2023-10-25T13:22:24.190Z,61.66
2023-10-25T13:27:26.168Z,63.63
2023-10-25T13:32:28.570Z,63.55
2023-10-25T13:37:30.324Z,65.32
2023-10-25T13:42:31.973Z,65.59
2023-10-25T13:47:33.972Z,65.14
2023-10-25T13:52:38.257Z,63.33
2023-10-25T13:57:39.874Z,65.13
2023-10-25T14:02:41.799Z,64.61
2023-10-25T14:07:43.837Z,64.99
2023-10-25T14:12:45.447Z,65.48
2023-10-25T14:17:47.264Z,64.88
2023-10-25T14:22:48.980Z,64.31
2023-10-25T14:27:50.817Z,66.04
2023-10-25T14:32:52.553Z,67.60
2023-10-25T14:37:54.263Z,65.58
2023-10-25T14:42:56.042Z,64.86
2023-10-25T14:47:57.831Z,63.63
2023-10-25T14:52:59.541Z,65.49
2023-10-25T14:58:01.569Z,65.73
2023-10-25T15:03:03.413Z,66.54
2023-10-25T15:08:05.174Z,64.87
2023-10-25T15:13:06.983Z,65.93
2023-10-25T15:18:08.762Z,66.53
2023-10-25T15:23:10.472Z,67.55
2023-10-25T15:28:12.369Z,65.92
2023-10-25T15:33:14.735Z,68.39
2023-10-25T15:38:16.556Z,65.30
2023-10-25T15:43:18.196Z,67.92
2023-10-25T15:48:19.979Z,65.51
2023-10-25T15:53:21.634Z,64.56
2023-10-25T15:58:23.361Z,65.02
2023-10-25T16:03:25.165Z,63.65
2023-10-25T16:08:27.631Z,65.47
2023-10-25T16:13:29.312Z,62.84
2023-10-25T16:18:34.728Z,63.90
2023-10-25T16:23:42.898Z,63.44
2023-10-25T16:28:46.221Z,63.33
2023-10-25T16:38:50.369Z,62.29
2023-10-25T16:43:52.430Z,65.57
2023-10-25T16:48:54.117Z,66.17
2023-10-25T16:53:55.814Z,64.82
2023-10-25T16:58:58.006Z,64.74
2023-10-25T17:03:59.741Z,65.85
2023-10-25T17:09:01.659Z,65.08
2023-10-25T17:14:03.981Z,66.33
2023-10-25T17:19:05.706Z,63.55
2023-10-25T17:24:10.296Z,65.89
2023-10-25T17:29:14.527Z,63.05
2023-10-25T17:34:16.279Z,63.65
2023-10-25T17:39:18.552Z,64.07
2023-10-25T17:44:21.361Z,63.73
2023-10-25T17:49:23.216Z,65.77
2023-10-25T17:54:25.389Z,61.03
2023-10-25T17:59:29.101Z,61.28
2023-10-25T18:04:31.632Z,62.72
2023-10-25T18:09:33.849Z,61.58
2023-10-25T18:14:38.579Z,61.63
2023-10-25T18:19:40.262Z,60.70
2023-10-25T18:24:43.517Z,61.42
2023-10-25T18:30:02.588Z,62.30
2023-10-25T18:35:10.179Z,59.71
2023-10-25T18:40:12.244Z,60.12
2023-10-25T18:45:14.626Z,60.39
2023-10-25T18:50:16.548Z,60.70
2023-10-25T18:55:18.347Z,59.52
2023-10-25T19:00:22.141Z,60.97
2023-10-25T19:06:29.342Z,61.77
2023-10-25T19:10:46.206Z,60.85
2023-10-25T19:15:47.964Z,61.53
2023-10-25T19:20:49.817Z,59.97
2023-10-25T19:25:51.554Z,58.20
2023-10-25T19:30:53.460Z,59.78
2023-10-25T19:35:55.406Z,59.14
2023-10-25T19:40:57.384Z,58.26
2023-10-25T19:45:59.849Z,59.16
2023-10-25T19:51:01.630Z,57.89
2023-10-25T19:56:03.622Z,57.24
2023-10-25T20:01:05.329Z,58.53
2023-10-25T20:06:10.576Z,58.62
2023-10-25T20:11:12.239Z,58.66
2023-10-25T20:16:13.979Z,59.27
2023-10-25T20:21:15.760Z,58.61
2023-10-25T20:26:29.794Z,58.63
2023-10-25T20:31:34.933Z,60.02
2023-10-25T20:36:37.298Z,59.12
2023-10-25T20:41:38.950Z,60.19
2023-10-25T20:46:40.670Z,58.23
2023-10-25T20:51:42.334Z,58.77
2023-10-25T20:56:44.064Z,56.99
2023-10-25T21:01:45.847Z,58.40
2023-10-25T21:06:47.485Z,56.89
2023-10-25T21:11:49.521Z,57.01
2023-10-25T21:16:51.188Z,57.70
2023-10-25T21:21:56.715Z,58.35
2023-10-25T21:26:58.381Z,55.54
2023-10-25T21:32:00.163Z,56.40
2023-10-25T21:37:01.799Z,58.19
2023-10-25T21:42:04.106Z,55.72
2023-10-25T21:47:05.909Z,54.32
2023-10-25T21:52:09.490Z,56.07
2023-10-25T21:57:11.311Z,56.82
2023-10-25T22:02:13.012Z,55.19
2023-10-25T22:07:14.691Z,55.13
2023-10-25T22:12:17.258Z,55.34
2023-10-25T22:17:18.921Z,55.10
2023-10-25T22:22:20.652Z,55.56
2023-10-25T22:27:22.401Z,55.72
2023-10-25T22:32:24.420Z,55.24
2023-10-25T22:37:26.121Z,55.63
2023-10-25T22:42:27.815Z,55.04
2023-10-25T22:47:29.533Z,55.52
2023-10-25T22:52:31.414Z,54.99
2023-10-25T22:57:33.057Z,56.18
2023-10-25T23:02:34.742Z,56.69
2023-10-25T23:07:36.395Z,56.43
2023-10-25T23:12:38.078Z,56.10
2023-10-25T23:17:39.957Z,57.15
2023-10-25T23:22:41.731Z,56.75
2023-10-25T23:27:43.460Z,55.14
2023-10-25T23:32:45.247Z,55.21
2023-10-25T23:37:46.952Z,55.90
2023-10-25T23:42:49.008Z,55.38
2023-10-25T23:47:51.152Z,56.71
2023-10-25T23:52:52.843Z,55.36
2023-10-25T23:57:54.543Z,55.85
